createdAt,value
2018-07-06T00:03:18.006Z,18.80
2018-07-06T00:07:32.629Z,18.70
2018-07-06T00:11:47.200Z,18.60
2018-07-06T00:16:01.714Z,18.50
2018-07-06T00:20:16.265Z,18.40
2018-07-06T00:24:30.954Z,18.40
2018-07-06T00:28:45.613Z,18.30
2018-07-06T00:33:00.400Z,18.30
2018-07-06T00:37:15.077Z,18.20
2018-07-06T00:41:29.729Z,18.10
2018-07-06T00:45:44.381Z,18.00
2018-07-06T00:49:59.044Z,18.00
2018-07-06T00:54:13.756Z,17.90
2018-07-06T00:58:28.542Z,17.80
2018-07-06T01:02:43.180Z,17.70
2018-07-06T01:06:57.972Z,17.70
2018-07-06T01:11:12.548Z,17.70
2018-07-06T01:15:32.773Z,17.60
2018-07-06T01:23:55.844Z,17.50
2018-07-06T01:28:10.585Z,17.50
2018-07-06T01:32:25.337Z,17.50
2018-07-06T01:36:39.860Z,17.40
2018-07-06T01:40:54.576Z,17.30
2018-07-06T01:45:09.201Z,17.20
2018-07-06T01:49:23.884Z,17.20
2018-07-06T01:53:38.458Z,17.20
2018-07-06T02:04:26.659Z,17.00
2018-07-06T02:08:41.413Z,16.90
2018-07-06T02:12:56.105Z,17.00
2018-07-06T02:17:10.536Z,17.00
2018-07-06T02:21:25.201Z,16.90
2018-07-06T02:25:39.854Z,16.80
2018-07-06T02:29:54.585Z,16.80
2018-07-06T02:34:09.331Z,16.80
2018-07-06T02:38:24.038Z,16.60
2018-07-06T02:42:38.693Z,16.60
2018-07-06T02:46:53.292Z,16.50
2018-07-06T02:51:08.002Z,16.50
2018-07-06T02:55:22.817Z,16.40
2018-07-06T02:59:37.516Z,16.30
2018-07-06T03:03:52.225Z,16.20
2018-07-06T03:08:06.831Z,16.20
2018-07-06T03:12:21.548Z,16.10
2018-07-06T03:16:36.181Z,16.00
2018-07-06T03:20:50.864Z,16.10
2018-07-06T03:25:05.494Z,16.20
2018-07-06T03:29:19.984Z,16.10
2018-07-06T03:33:34.674Z,16.00
2018-07-06T03:37:49.286Z,15.90
2018-07-06T03:42:03.996Z,15.90
2018-07-06T03:46:18.655Z,15.90
2018-07-06T03:50:33.368Z,16.00
2018-07-06T03:54:48.505Z,16.00
2018-07-06T03:59:03.042Z,16.10
2018-07-06T04:07:26.079Z,16.20
2018-07-06T04:11:40.817Z,16.30
2018-07-06T04:20:03.942Z,16.30
2018-07-06T04:24:18.584Z,16.40
2018-07-06T04:28:33.196Z,16.40
2018-07-06T04:32:47.865Z,16.40
2018-07-06T04:37:02.673Z,16.50
2018-07-06T04:41:17.404Z,16.60
2018-07-06T04:45:32.494Z,16.60
2018-07-06T04:49:47.168Z,16.60
2018-07-06T04:54:01.713Z,16.70
2018-07-06T04:58:16.124Z,16.70
2018-07-06T05:02:30.829Z,16.70
2018-07-06T05:06:45.146Z,16.90
2018-07-06T05:10:59.657Z,16.80
2018-07-06T05:15:14.429Z,16.90
2018-07-06T05:19:28.947Z,17.10
2018-07-06T05:23:43.517Z,17.10
2018-07-06T05:27:58.313Z,17.20
2018-07-06T05:32:12.842Z,17.10
2018-07-06T05:36:27.621Z,17.20
2018-07-06T05:40:42.345Z,17.40
2018-07-06T05:44:56.849Z,17.60
2018-07-06T05:53:20.125Z,17.80
2018-07-06T05:57:34.768Z,17.80
2018-07-06T06:01:49.481Z,18.10
2018-07-06T06:06:03.993Z,18.40
2018-07-06T06:10:07.231Z,18.50
2018-07-06T06:14:10.467Z,18.30
2018-07-06T06:18:13.707Z,18.20
2018-07-06T06:22:16.965Z,18.20
2018-07-06T06:26:26.711Z,18.30
2018-07-06T06:30:29.985Z,18.10
2018-07-06T06:34:33.245Z,18.30
2018-07-06T06:42:39.452Z,19.00
2018-07-06T06:50:45.700Z,19.50
2018-07-06T06:54:48.945Z,19.80
2018-07-06T06:58:52.335Z,19.00
2018-07-06T07:02:55.577Z,18.40
2018-07-06T07:06:58.802Z,19.20
2018-07-06T07:11:02.041Z,19.60
2018-07-06T07:15:05.300Z,19.60
2018-07-06T07:19:08.525Z,19.90
2018-07-06T07:23:11.879Z,19.80
2018-07-06T07:27:15.121Z,19.50
2018-07-06T07:31:18.404Z,19.40
2018-07-06T07:35:21.641Z,19.70
2018-07-06T07:39:24.984Z,20.00
2018-07-06T07:43:28.236Z,20.00
2018-07-06T07:47:31.494Z,20.30
2018-07-06T07:51:56.413Z,20.10
2018-07-06T07:55:59.669Z,19.90
2018-07-06T08:00:02.904Z,20.20
2018-07-06T08:04:06.272Z,20.70
2018-07-06T08:08:09.532Z,20.60
2018-07-06T08:12:12.781Z,20.40
2018-07-06T08:16:16.013Z,20.50
2018-07-06T08:20:19.252Z,20.80
2018-07-06T08:24:22.480Z,20.40
2018-07-06T08:28:25.717Z,20.80
2018-07-06T08:32:28.929Z,20.70
2018-07-06T08:37:49.464Z,21.50
2018-07-06T08:41:52.700Z,20.60
2018-07-06T08:45:55.933Z,20.70
2018-07-06T08:49:59.900Z,20.70
2018-07-06T08:54:03.132Z,21.10
2018-07-06T08:58:06.369Z,21.10
2018-07-06T09:02:09.601Z,21.10
2018-07-06T09:06:12.816Z,21.60
2018-07-06T09:10:16.054Z,21.10
2018-07-06T09:14:19.276Z,20.60
2018-07-06T09:18:22.505Z,20.20
2018-07-06T09:22:25.813Z,20.90
2018-07-06T09:26:29.076Z,21.10
2018-07-06T09:30:32.328Z,20.90
2018-07-06T09:34:35.533Z,21.50
2018-07-06T09:38:38.789Z,22.60
2018-07-06T09:42:42.005Z,22.60
2018-07-06T09:46:45.248Z,22.30
2018-07-06T09:50:48.549Z,22.50
2018-07-06T09:54:51.729Z,23.30
2018-07-06T09:58:54.960Z,24.80
2018-07-06T10:02:58.208Z,25.60
2018-07-06T10:11:04.752Z,26.40
2018-07-06T10:19:10.941Z,26.10
2018-07-06T10:23:14.162Z,25.90
2018-07-06T10:27:19.543Z,25.80
2018-07-06T10:32:36.307Z,25.10
2018-07-06T10:36:39.598Z,24.60
2018-07-06T10:44:46.589Z,26.10
2018-07-06T10:48:49.840Z,26.30
2018-07-06T10:52:53.526Z,26.90
2018-07-06T10:56:57.207Z,26.60
2018-07-06T11:01:00.985Z,27.30
2018-07-06T11:05:04.352Z,28.30
2018-07-06T11:09:08.156Z,29.80
2018-07-06T11:13:12.677Z,31.20
2018-07-06T11:17:16.608Z,28.50
2018-07-06T11:25:22.853Z,30.90
2018-07-06T11:29:26.345Z,33.10
2018-07-06T11:37:33.245Z,32.20
2018-07-06T11:41:40.156Z,29.80
2018-07-06T11:45:43.426Z,30.70
2018-07-06T11:49:47.030Z,31.40
2018-07-06T11:53:51.249Z,30.50
2018-07-06T11:57:54.917Z,30.20
2018-07-06T12:01:58.178Z,30.30
2018-07-06T12:06:02.565Z,31.90
2018-07-06T12:14:09.515Z,30.00
2018-07-06T12:18:13.178Z,28.70
2018-07-06T12:26:19.425Z,32.60
2018-07-06T12:30:22.668Z,33.40
2018-07-06T12:34:25.921Z,34.00
2018-07-06T12:38:29.169Z,33.40
2018-07-06T12:42:32.417Z,32.00
2018-07-06T12:54:41.644Z,32.00
2018-07-06T12:58:45.049Z,31.80
2018-07-06T13:02:48.916Z,28.80
2018-07-06T13:06:52.194Z,30.10
2018-07-06T13:10:55.419Z,30.50
2018-07-06T13:14:58.641Z,29.40
2018-07-06T13:19:01.897Z,28.70
2018-07-06T13:23:05.182Z,29.20
2018-07-06T13:27:08.423Z,30.40
2018-07-06T13:31:11.676Z,32.80
2018-07-06T13:39:17.983Z,32.30
2018-07-06T13:43:21.165Z,33.40
2018-07-06T13:47:24.408Z,33.50
2018-07-06T13:51:27.621Z,34.30
2018-07-06T13:55:30.856Z,32.20
2018-07-06T13:59:34.097Z,30.90
2018-07-06T14:03:37.333Z,30.10
2018-07-06T14:07:40.549Z,31.50
2018-07-06T14:11:43.890Z,32.30
2018-07-06T14:15:47.132Z,33.50
2018-07-06T14:23:53.334Z,28.80
2018-07-06T14:27:56.614Z,28.30
2018-07-06T14:31:59.784Z,27.60
2018-07-06T14:36:03.398Z,26.90
2018-07-06T14:40:06.647Z,26.20
2018-07-06T14:48:12.833Z,25.50
2018-07-06T14:52:16.065Z,25.40
2018-07-06T14:56:19.311Z,25.40
2018-07-06T15:00:22.556Z,25.50
2018-07-06T15:04:25.824Z,25.30
2018-07-06T15:08:29.057Z,25.00
2018-07-06T15:12:32.276Z,25.30
2018-07-06T15:16:35.490Z,25.40
2018-07-06T15:20:38.709Z,25.80
2018-07-06T15:24:41.987Z,26.00
2018-07-06T15:28:45.216Z,26.60
2018-07-06T15:32:48.445Z,28.50
2018-07-06T15:36:51.668Z,29.70
2018-07-06T15:44:57.873Z,30.00
2018-07-06T15:49:02.861Z,30.10
2018-07-06T15:53:06.852Z,30.80
2018-07-06T15:57:10.140Z,32.80
2018-07-06T16:01:15.035Z,29.50
2018-07-06T16:05:18.929Z,30.00
2018-07-06T16:09:22.562Z,29.80
2018-07-06T16:13:26.121Z,29.80
2018-07-06T16:17:29.649Z,29.50
2018-07-06T16:25:36.088Z,27.40
2018-07-06T16:29:39.594Z,26.70
2018-07-06T16:33:42.854Z,26.10
2018-07-06T16:37:46.111Z,25.70
2018-07-06T16:45:52.367Z,26.70
2018-07-06T16:49:56.085Z,27.00
2018-07-06T16:53:59.477Z,27.10
2018-07-06T16:58:02.706Z,27.20
2018-07-06T17:02:06.229Z,26.20
2018-07-06T17:06:09.460Z,26.90
2018-07-06T17:10:12.696Z,26.90
2018-07-06T17:14:15.978Z,27.90
2018-07-06T17:18:19.201Z,28.30
2018-07-06T17:22:22.448Z,27.50
2018-07-06T17:26:25.689Z,26.80
2018-07-06T17:30:28.911Z,26.60
2018-07-06T17:34:32.353Z,26.10
2018-07-06T17:38:35.632Z,26.10
2018-07-06T17:42:38.850Z,25.90
2018-07-06T17:46:42.073Z,26.20
2018-07-06T17:50:45.288Z,25.80
2018-07-06T17:54:48.529Z,26.00
2018-07-06T17:58:51.766Z,26.10
2018-07-06T18:02:55.014Z,25.70
2018-07-06T18:06:58.261Z,25.70
2018-07-06T18:11:01.483Z,25.50
2018-07-06T18:15:04.849Z,25.30
2018-07-06T18:19:08.089Z,25.60
2018-07-06T18:23:11.439Z,25.80
2018-07-06T18:27:14.588Z,26.30
2018-07-06T18:31:17.814Z,26.50
2018-07-06T18:35:21.055Z,27.10
2018-07-06T18:39:24.284Z,27.10
2018-07-06T18:43:27.504Z,27.80
2018-07-06T18:47:30.791Z,26.70
2018-07-06T18:51:33.956Z,25.70
2018-07-06T19:03:43.141Z,24.30
2018-07-06T19:07:46.365Z,24.10
2018-07-06T19:15:52.564Z,23.80
2018-07-06T19:19:55.987Z,23.70
2018-07-06T19:28:02.265Z,23.50
2018-07-06T19:32:05.594Z,23.40
2018-07-06T19:40:11.809Z,23.20
2018-07-06T19:44:16.117Z,23.20
2018-07-06T19:52:23.233Z,23.10
2018-07-06T19:56:26.837Z,22.90
2018-07-06T20:00:31.376Z,22.80
2018-07-06T20:04:36.664Z,22.70
2018-07-06T20:08:40.116Z,22.60
2018-07-06T20:12:43.624Z,22.50
2018-07-06T20:16:46.952Z,22.40
2018-07-06T20:20:52.702Z,22.40
2018-07-06T20:24:56.270Z,22.20
2018-07-06T20:28:59.919Z,22.20
2018-07-06T20:33:03.150Z,22.10
2018-07-06T20:37:06.715Z,22.00
2018-07-06T20:41:10.196Z,21.90
2018-07-06T20:45:13.829Z,21.80
2018-07-06T20:49:17.257Z,21.70
2018-07-06T20:53:20.890Z,21.50
2018-07-06T20:57:24.133Z,21.40
2018-07-06T21:01:27.816Z,21.10
2018-07-06T21:05:31.062Z,21.00
2018-07-06T21:09:35.181Z,20.80
2018-07-06T21:13:38.725Z,20.60
2018-07-06T21:17:42.814Z,20.50
2018-07-06T21:21:46.231Z,20.30
2018-07-06T21:25:50.198Z,20.30
2018-07-06T21:29:53.793Z,20.20
2018-07-06T21:33:57.237Z,20.10
2018-07-06T21:38:01.392Z,19.90
2018-07-06T21:42:04.668Z,19.90
2018-07-06T21:46:07.984Z,19.80
2018-07-06T21:50:11.324Z,19.70
2018-07-06T21:54:14.893Z,19.60
2018-07-06T21:58:18.121Z,19.50
2018-07-06T22:02:21.514Z,19.30
2018-07-06T22:06:25.082Z,19.20
2018-07-06T22:10:29.379Z,19.00
2018-07-06T22:14:32.657Z,19.00
2018-07-06T22:18:35.837Z,18.90
2018-07-06T22:22:39.131Z,18.80
2018-07-06T22:26:42.300Z,18.80
2018-07-06T22:30:45.521Z,18.70
2018-07-06T22:34:48.754Z,18.70
2018-07-06T22:38:51.977Z,18.50
2018-07-06T22:42:55.189Z,18.40
2018-07-06T22:51:01.368Z,18.10
2018-07-06T22:55:04.620Z,18.00
2018-07-06T22:59:07.836Z,17.90
2018-07-06T23:03:11.044Z,17.80
2018-07-06T23:07:14.268Z,17.70
2018-07-06T23:11:17.484Z,17.70
2018-07-06T23:15:20.717Z,17.60
2018-07-06T23:19:23.934Z,17.50
2018-07-06T23:23:27.178Z,17.40
2018-07-06T23:27:30.393Z,17.40
2018-07-06T23:31:33.629Z,17.20
2018-07-06T23:35:36.932Z,17.20
2018-07-06T23:39:40.156Z,17.10
2018-07-06T23:43:43.376Z,17.00
2018-07-06T23:47:46.659Z,16.90
2018-07-06T23:51:49.930Z,16.80
2018-07-06T23:55:53.173Z,16.60
